Hauptseite
METAR-TAF:

METAR-TAF

Flughäfen :

Flughafen London Heathrow

London-Heathrow, England

Breite: 51-29N, Länge: 000-27W, Höhe: 24 m

Beobachtung

Neuester Wetterbericht von vor 32 Minuten, um 15:50 UTC
Wind 10 kt aus West/Südwest, variierte zwischen Süd/Südwest und West
Temperatur 28°C
Luftfeuchtigkeit 32%
Luftdruck 1012 hPa
Sichtweite 10 km oder mehr

METAR: EGLL 161550Z AUTO 24010KT 210V270 9999 NCD 28/10 Q1012 NOSIG

Zeit: 17:22 (16:22 UTC)

Prognose

Neuester Wetterbericht von vor 5 Stunden und 31 Minuten, um 10:51 UTC
Gültige Prognose vom 16 um 12 UTC bis 17 um 18 UTC
Wind 6 kt aus West
Sichtweite 10 km oder mehr
keine Wolken unter 1500 m und keine Kumulonimbus oder Gewitterwolken

TAF: EGLL 161051Z 1612/1718 27006KT CAVOK

Wetterbeobachtungen und Prognosen von mehr als 4000 Flughäfen (METAR und TAF Bericht).

Die verfügbaren Stationen werden durch gelbe und rote Markierungen auf der Karte dargestellt.

Führen Sie die Maus auf sie, um den Namen der Station zu sehen.

Darauf klicken, um die Beobachtung von Wetterbeobachtungen und Prognosen zu sehen.

Um die Karte zu ändern : klicken Sie auf den grünen Tasten mit einem schwarzen Kreuz Zum Vergrößern, auf den grünen Button mit einem Gedankenstrich zu verkleinern, oder auf die grünen Pfeile für benachbarte Karten.


METAR-TAF: